createdAt,value
2019-04-06T00:00:52.809Z,702.2
2019-04-06T00:01:55.249Z,702.5
2019-04-06T00:02:57.687Z,702.3
2019-04-06T00:03:59.877Z,702.3
2019-04-06T00:05:02.317Z,702.5
2019-04-06T00:06:04.737Z,702.1
2019-04-06T00:07:06.886Z,702.4
2019-04-06T00:08:09.049Z,702.6
2019-04-06T00:09:11.470Z,702.5
2019-04-06T00:10:13.635Z,702.8
2019-04-06T00:11:16.065Z,702.7
2019-04-06T00:12:18.546Z,702.5
2019-04-06T00:13:20.399Z,702.8
2019-04-06T00:14:22.546Z,702.5
2019-04-06T00:15:24.979Z,702.7
2019-04-06T00:16:27.130Z,702.6
2019-04-06T00:17:29.319Z,702.5
2019-04-06T00:18:31.478Z,702.5
2019-04-06T00:19:33.908Z,702.5
2019-04-06T00:20:36.339Z,703.1
2019-04-06T00:21:38.797Z,702.7
2019-04-06T00:22:41.226Z,702.7
2019-04-06T00:23:43.657Z,703
2019-04-06T00:24:45.841Z,703
2019-04-06T00:25:48.282Z,703.1
2019-04-06T00:26:50.765Z,703
2019-04-06T00:27:53.265Z,703.6
2019-04-06T00:28:55.694Z,703.5
2019-04-06T00:29:57.859Z,703.6
2019-04-06T00:31:00.288Z,703.3
2019-04-06T00:32:02.735Z,703.4
2019-04-06T00:33:05.170Z,703.6
2019-04-06T00:34:07.333Z,703.5
2019-04-06T00:35:09.776Z,703.2
2019-04-06T00:36:12.212Z,703.3
2019-04-06T00:37:14.361Z,703.5
2019-04-06T00:38:16.279Z,703.4
2019-04-06T00:39:18.722Z,703.1
2019-04-06T00:40:20.589Z,703.2
2019-04-06T00:41:23.087Z,702.7
2019-04-06T00:42:25.501Z,702.8
2019-04-06T00:43:27.934Z,702.8
2019-04-06T00:44:30.123Z,702.7
2019-04-06T00:45:32.339Z,702.5
2019-04-06T00:46:34.225Z,702.5
2019-04-06T00:47:36.661Z,702.6
2019-04-06T00:48:39.095Z,702.7
2019-04-06T00:49:41.264Z,702.5
2019-04-06T00:50:43.406Z,702.4
2019-04-06T00:51:45.840Z,702.6
2019-04-06T00:52:48.297Z,702.6
2019-04-06T00:53:50.731Z,702.7
2019-04-06T00:54:53.177Z,702.5
2019-04-06T00:57:00.600Z,702.6
2019-04-06T00:58:03.060Z,702.5
2019-04-06T00:59:05.486Z,702.4
2019-04-06T01:00:07.949Z,702.9
2019-04-06T01:01:10.377Z,703
2019-04-06T01:02:12.813Z,703.1
2019-04-06T01:03:15.236Z,702.9
2019-04-06T01:04:17.713Z,702.5
2019-04-06T01:05:19.924Z,702.9
2019-04-06T01:06:22.351Z,702.5
2019-04-06T01:07:25.407Z,702.6
2019-04-06T01:08:27.565Z,702.7
2019-04-06T01:09:29.997Z,703.3
2019-04-06T01:10:32.433Z,703.3
2019-04-06T01:11:34.877Z,703.8
2019-04-06T01:12:37.362Z,703.3
2019-04-06T01:13:39.559Z,703.4
2019-04-06T01:14:41.684Z,703.2
2019-04-06T01:15:43.849Z,702.9
2019-04-06T01:16:46.067Z,702.6
2019-04-06T01:17:48.479Z,702.7
2019-04-06T01:18:50.637Z,702.6
2019-04-06T01:19:52.817Z,702.1
2019-04-06T01:20:55.248Z,702.3
2019-04-06T01:21:57.397Z,702.2
2019-04-06T01:22:59.863Z,702.3
2019-04-06T01:24:02.388Z,702.6
2019-04-06T01:25:04.848Z,702.7
2019-04-06T01:27:12.011Z,702.5
2019-04-06T01:28:14.585Z,703
2019-04-06T01:29:17.007Z,702.8
2019-04-06T01:30:19.553Z,702.9
2019-04-06T01:31:21.966Z,703.5
2019-04-06T01:32:24.156Z,703.5
2019-04-06T01:33:26.720Z,703.6
2019-04-06T01:34:29.136Z,703.4
2019-04-06T01:35:31.292Z,703.9
2019-04-06T01:36:33.472Z,704.1
2019-04-06T01:37:36.214Z,703.9
2019-04-06T01:38:38.621Z,704.1
2019-04-06T01:39:41.059Z,704.1
2019-04-06T01:40:43.538Z,703.9
2019-04-06T01:41:45.675Z,704.2
2019-04-06T01:42:48.095Z,704.5
2019-04-06T01:43:50.556Z,704.4
2019-04-06T01:44:52.978Z,704.6
2019-04-06T01:45:55.466Z,704.2
2019-04-06T01:46:57.953Z,703.9
2019-04-06T01:48:00.431Z,704.6
2019-04-06T01:49:02.411Z,703.8
2019-04-06T01:50:04.325Z,704
2019-04-06T01:51:06.799Z,704.1
2019-04-06T01:52:08.960Z,704.4
2019-04-06T01:53:11.392Z,704.4
2019-04-06T01:54:13.821Z,704.7
2019-04-06T01:55:15.987Z,704.7
2019-04-06T01:57:23.579Z,705.1
2019-04-06T01:58:26.009Z,705
2019-04-06T01:59:28.185Z,704.6
2019-04-06T02:00:30.681Z,705.1
2019-04-06T02:01:33.249Z,705.1
2019-04-06T02:02:35.909Z,704.6
2019-04-06T02:03:38.347Z,704.8
2019-04-06T02:04:40.510Z,704.6
2019-04-06T02:05:42.687Z,704.6
2019-04-06T02:06:45.208Z,704.5
2019-04-06T02:07:47.629Z,704.5
2019-04-06T02:08:50.061Z,704.5
2019-04-06T02:09:52.489Z,704.4
2019-04-06T02:10:55.026Z,704.3
2019-04-06T02:11:57.457Z,704.3
2019-04-06T02:12:59.901Z,704.5
2019-04-06T02:14:02.037Z,704.6
2019-04-06T02:15:04.549Z,704.7
2019-04-06T02:16:07.127Z,704.8
2019-04-06T02:17:09.609Z,704.9
2019-04-06T02:18:11.793Z,705.2
2019-04-06T02:19:14.228Z,704.7
2019-04-06T02:20:16.377Z,704.5
2019-04-06T02:21:18.541Z,704.5
2019-04-06T02:22:20.901Z,704.4
2019-04-06T02:23:23.273Z,704.7
2019-04-06T02:24:25.713Z,704.8
2019-04-06T02:25:28.150Z,704.9
2019-04-06T02:26:32.686Z,704.7
2019-04-06T02:27:35.329Z,704.9
2019-04-06T02:28:37.767Z,704.7
2019-04-06T02:29:40.207Z,704.6
2019-04-06T02:30:42.577Z,704.6
2019-04-06T02:31:45.015Z,704.8
2019-04-06T02:32:47.617Z,704.7
2019-04-06T02:33:50.090Z,704.8
2019-04-06T02:34:52.232Z,704.9
2019-04-06T02:35:54.391Z,704.4
2019-04-06T02:36:57.008Z,704.4
2019-04-06T02:37:58.892Z,705
2019-04-06T02:39:00.765Z,705
2019-04-06T02:40:03.430Z,705.4
2019-04-06T02:41:05.679Z,705.3
2019-04-06T02:42:08.096Z,705.2
2019-04-06T02:43:10.616Z,705.2
2019-04-06T02:44:13.320Z,705.7
2019-04-06T02:45:15.755Z,705.4
2019-04-06T02:46:18.480Z,705.6
2019-04-06T02:47:21.215Z,705.7
2019-04-06T02:48:23.638Z,705.8
2019-04-06T02:49:26.080Z,706
2019-04-06T02:50:28.669Z,705.9
2019-04-06T02:51:31.111Z,706
2019-04-06T02:52:33.264Z,705.8
2019-04-06T02:53:35.740Z,705.8
2019-04-06T02:54:38.164Z,705.8
2019-04-06T02:55:40.608Z,705.8
2019-04-06T02:57:48.416Z,706.2
2019-04-06T02:58:50.756Z,706
2019-04-06T02:59:53.340Z,705.7
2019-04-06T03:00:55.788Z,705.7
2019-04-06T03:01:58.370Z,705.6
2019-04-06T03:03:00.973Z,705.5
2019-04-06T03:04:03.404Z,705.8
2019-04-06T03:05:04.988Z,705.6
2019-04-06T03:06:07.597Z,705.6
2019-04-06T03:07:10.063Z,705.9
2019-04-06T03:08:11.949Z,705.7
2019-04-06T03:09:14.712Z,705.6
2019-04-06T03:10:17.143Z,705.7
2019-04-06T03:11:19.463Z,706
2019-04-06T03:12:21.352Z,705.8
2019-04-06T03:13:23.510Z,705.8
2019-04-06T03:14:26.171Z,706.1
2019-04-06T03:15:28.747Z,706.1
2019-04-06T03:16:31.613Z,705.8
2019-04-06T03:17:34.050Z,705.9
2019-04-06T03:18:36.209Z,705.8
2019-04-06T03:19:38.642Z,706.2
2019-04-06T03:20:41.067Z,706.1
2019-04-06T03:21:43.498Z,706.4
2019-04-06T03:22:46.158Z,706.3
2019-04-06T03:24:53.117Z,706.4
2019-04-06T03:25:55.388Z,706.4
2019-04-06T03:28:03.046Z,706.6
2019-04-06T03:29:05.651Z,706.6
2019-04-06T03:30:08.840Z,706.1
2019-04-06T03:31:12.091Z,706.5
2019-04-06T03:32:14.614Z,706.6
2019-04-06T03:33:17.500Z,706.6
2019-04-06T03:35:25.046Z,706.6
2019-04-06T03:36:27.504Z,707
2019-04-06T03:37:30.007Z,706.5
2019-04-06T03:38:32.172Z,706.5
2019-04-06T03:39:34.624Z,706.6
2019-04-06T03:40:37.053Z,706.6
2019-04-06T03:41:39.483Z,706.9
2019-04-06T03:42:41.969Z,706.8
2019-04-06T03:43:44.413Z,706.6
2019-04-06T03:44:47.248Z,706.6
2019-04-06T03:45:49.689Z,706.6
2019-04-06T03:46:51.717Z,706.8
2019-04-06T03:47:53.664Z,707
2019-04-06T03:48:55.817Z,707
2019-04-06T03:49:58.517Z,706.5
2019-04-06T03:51:01.193Z,706.2
2019-04-06T03:52:03.756Z,706.4
2019-04-06T03:53:05.935Z,706.8
2019-04-06T03:54:08.533Z,706.5
2019-04-06T03:55:10.294Z,706.5
2019-04-06T03:56:12.303Z,706.3
2019-04-06T03:58:19.486Z,706.4
2019-04-06T03:59:21.954Z,706.3
2019-04-06T04:00:24.803Z,706.3
2019-04-06T04:01:27.555Z,706.4
2019-04-06T04:02:30.010Z,706.3
2019-04-06T04:03:32.451Z,706.3
2019-04-06T04:04:34.869Z,706.2
2019-04-06T04:05:37.291Z,706.4
2019-04-06T04:06:38.929Z,706.5
2019-04-06T04:07:41.214Z,706.4
2019-04-06T04:08:44.154Z,706.5
2019-04-06T04:09:46.923Z,706.4
2019-04-06T04:10:50.122Z,706.4
2019-04-06T04:11:52.609Z,706.3
2019-04-06T04:12:54.900Z,706.7
2019-04-06T04:13:57.335Z,706.8
2019-04-06T04:14:59.927Z,706.7
2019-04-06T04:16:02.315Z,707
2019-04-06T04:17:04.968Z,706.8
2019-04-06T04:18:07.908Z,706.8
2019-04-06T04:19:10.099Z,707.1
2019-04-06T04:20:12.553Z,706.4
2019-04-06T04:21:15.317Z,706.3
2019-04-06T04:22:18.116Z,706.1
2019-04-06T04:23:20.494Z,706.2
2019-04-06T04:24:23.346Z,706.4
2019-04-06T04:25:26.048Z,706.6
2019-04-06T04:26:28.811Z,706.3
2019-04-06T04:27:33.040Z,706.4
2019-04-06T04:28:35.510Z,706.7
2019-04-06T04:29:37.979Z,707
2019-04-06T04:30:40.999Z,706.6
2019-04-06T04:31:43.674Z,706.2
2019-04-06T04:32:46.105Z,706.6
2019-04-06T04:33:48.557Z,706.8
2019-04-06T04:34:51.031Z,706.7
2019-04-06T04:35:53.487Z,706.5
2019-04-06T04:36:55.985Z,706.7
2019-04-06T04:37:58.726Z,706.5
2019-04-06T04:39:01.067Z,706.2
2019-04-06T04:40:03.185Z,705.9
2019-04-06T04:41:06.286Z,705.9
2019-04-06T04:42:08.718Z,705.8
2019-04-06T04:43:10.629Z,706
2019-04-06T04:44:12.880Z,705.1
2019-04-06T04:45:15.662Z,705.2
2019-04-06T04:46:18.087Z,704.9
2019-04-06T04:47:20.544Z,705
2019-04-06T04:48:22.766Z,704.8
2019-04-06T04:49:24.725Z,705.1
2019-04-06T04:50:27.415Z,704.6
2019-04-06T04:51:29.547Z,704.7
2019-04-06T04:52:31.983Z,704.6
2019-04-06T04:53:34.199Z,704.7
2019-04-06T04:54:36.906Z,704.6
2019-04-06T04:55:39.384Z,704.6
2019-04-06T04:56:41.288Z,704.6
2019-04-06T04:58:48.901Z,704.4
2019-04-06T04:59:51.333Z,704.6
2019-04-06T05:00:54.217Z,704.4
2019-04-06T05:01:56.691Z,704.4
2019-04-06T05:02:58.581Z,704.5
2019-04-06T05:04:00.777Z,704.6
2019-04-06T05:05:03.221Z,704.2
2019-04-06T05:06:05.892Z,704
2019-04-06T05:07:08.411Z,704.4
2019-04-06T05:08:10.796Z,704.1
2019-04-06T05:09:13.397Z,704.3
2019-04-06T05:10:15.575Z,704
2019-04-06T05:11:17.750Z,704.1
2019-04-06T05:12:20.170Z,704.1
2019-04-06T05:13:22.392Z,704.2
2019-04-06T05:14:24.001Z,704
2019-04-06T05:15:25.867Z,704.2
2019-04-06T05:16:28.413Z,704.1
2019-04-06T05:17:30.903Z,704
2019-04-06T05:18:33.366Z,703.5
2019-04-06T05:19:35.253Z,703.7
2019-04-06T05:20:37.437Z,703.2
2019-04-06T05:21:39.876Z,703.2
2019-04-06T05:22:42.367Z,703.3
2019-04-06T05:23:45.589Z,703
2019-04-06T05:24:48.017Z,703.2
2019-04-06T05:25:50.537Z,703.1
2019-04-06T05:26:53.226Z,703.7
2019-04-06T05:27:55.656Z,703.2
2019-04-06T05:28:58.211Z,703
2019-04-06T05:30:00.095Z,702.7
2019-04-06T05:31:17.201Z,702.2
2019-04-06T05:32:19.897Z,702.9
2019-04-06T05:33:22.579Z,702.7
2019-04-06T05:34:24.912Z,703.1
2019-04-06T05:35:29.206Z,702.6
2019-04-06T05:36:33.586Z,703.1
2019-04-06T05:37:38.050Z,703.2
2019-04-06T05:38:42.776Z,703.2
2019-04-06T05:39:45.645Z,703.1
2019-04-06T05:40:47.795Z,702.9
2019-04-06T05:42:54.931Z,702.7
2019-04-06T05:43:57.394Z,702.7
2019-04-06T05:44:58.986Z,702.5
2019-04-06T05:46:01.441Z,702.3
2019-04-06T05:47:04.085Z,702.2
2019-04-06T05:48:06.500Z,702.3
2019-04-06T05:49:08.656Z,702.3
2019-04-06T05:50:10.986Z,701.9
2019-04-06T05:51:13.434Z,701.8
2019-04-06T05:52:15.872Z,701.8
2019-04-06T05:53:18.379Z,701.5
2019-04-06T05:54:20.590Z,701.5
2019-04-06T05:56:29.116Z,701.3
2019-04-06T05:58:39.843Z,701.1
2019-04-06T05:59:43.277Z,701.7
2019-04-06T06:00:45.438Z,701.6
2019-04-06T06:02:53.027Z,701.4
2019-04-06T06:03:55.430Z,701.3
2019-04-06T06:05:00.520Z,701.4
2019-04-06T06:06:05.045Z,701.2
2019-04-06T06:07:08.492Z,701.1
2019-04-06T06:08:11.353Z,701.3
2019-04-06T06:09:13.801Z,700.9
2019-04-06T06:10:16.450Z,701
2019-04-06T06:11:18.718Z,701
2019-04-06T06:12:21.173Z,701.3
2019-04-06T06:13:23.321Z,701.3
2019-04-06T06:14:25.964Z,701.2
2019-04-06T06:15:28.255Z,701.1
2019-04-06T06:16:30.871Z,701.2
2019-04-06T06:17:33.620Z,701.4
2019-04-06T06:18:36.044Z,701.6
2019-04-06T06:19:39.376Z,701.1
2019-04-06T06:20:41.806Z,701.2
2019-04-06T06:21:44.241Z,701.4
2019-04-06T06:22:46.782Z,701.8
2019-04-06T06:23:49.693Z,701.3
2019-04-06T06:24:52.347Z,702
2019-04-06T06:25:54.774Z,701.6
2019-04-06T06:26:56.666Z,701.9
2019-04-06T06:27:59.207Z,701.9
2019-04-06T06:29:01.092Z,701.8
2019-04-06T06:30:03.819Z,701.7
2019-04-06T06:31:06.414Z,701.7
2019-04-06T06:32:08.836Z,701.7
2019-04-06T06:33:11.207Z,701.9
2019-04-06T06:34:13.808Z,701.6
2019-04-06T06:35:16.560Z,701.9
2019-04-06T06:36:19.016Z,701.2
2019-04-06T06:37:21.079Z,701.4
2019-04-06T06:38:23.010Z,701.5
2019-04-06T06:39:25.440Z,701.3
2019-04-06T06:40:27.664Z,701.5
2019-04-06T06:41:29.977Z,701.3
2019-04-06T06:42:32.487Z,701.5
2019-04-06T06:43:34.665Z,701.4
2019-04-06T06:44:36.805Z,701.3
2019-04-06T06:45:39.340Z,700.9
2019-04-06T06:46:41.788Z,701
2019-04-06T06:47:43.946Z,701.4
2019-04-06T06:48:46.644Z,701.1
2019-04-06T06:49:48.576Z,701.9
2019-04-06T06:50:51.010Z,701.4
2019-04-06T06:51:53.326Z,701.2
2019-04-06T06:52:56.142Z,701.1
2019-04-06T06:53:58.382Z,701.2
2019-04-06T06:55:00.806Z,701
2019-04-06T06:56:03.373Z,701
2019-04-06T06:57:05.986Z,701.2
2019-04-06T06:58:07.867Z,701.1
2019-04-06T06:59:10.225Z,701.3
2019-04-06T07:00:12.934Z,701.2
2019-04-06T07:01:15.464Z,701.2
2019-04-06T07:02:17.889Z,701.3
2019-04-06T07:03:20.056Z,701.4
2019-04-06T07:04:22.467Z,701.5
2019-04-06T07:05:25.076Z,701.5
2019-04-06T07:06:27.424Z,701.2
2019-04-06T07:07:29.864Z,701
2019-04-06T07:08:32.661Z,701.6
2019-04-06T07:09:35.467Z,701.4
2019-04-06T07:10:38.187Z,701.8
2019-04-06T07:11:40.948Z,701.1
2019-04-06T07:12:43.556Z,701.5
2019-04-06T07:13:46.794Z,701.4
2019-04-06T07:14:55.543Z,701.4
2019-04-06T07:16:06.203Z,701.4
2019-04-06T07:17:15.801Z,701.3
2019-04-06T07:18:27.378Z,701.4
2019-04-06T07:19:36.424Z,701.1
2019-04-06T07:20:46.667Z,701.5
2019-04-06T07:21:57.032Z,701.5
2019-04-06T07:23:09.424Z,701.5
2019-04-06T07:24:14.995Z,701.1
2019-04-06T07:25:18.179Z,701.1
2019-04-06T07:26:21.312Z,701.3
2019-04-06T07:27:23.694Z,701.5
2019-04-06T07:29:31.052Z,701.2
2019-04-06T07:30:33.686Z,701.3
2019-04-06T07:31:36.327Z,701.1
2019-04-06T07:32:38.195Z,701.5
2019-04-06T07:33:40.425Z,701.3
2019-04-06T07:34:42.298Z,700.9
2019-04-06T07:35:44.698Z,701.3
2019-04-06T07:36:46.856Z,701.2
2019-04-06T07:37:49.298Z,701.1
2019-04-06T07:38:51.547Z,701.1
2019-04-06T07:39:54.439Z,701.4
2019-04-06T07:40:56.679Z,701.6
2019-04-06T07:41:58.823Z,701.5
2019-04-06T07:43:01.260Z,701.7
2019-04-06T07:45:09.784Z,701.7
2019-04-06T07:46:12.408Z,701.4
2019-04-06T07:47:14.567Z,701.9
2019-04-06T07:48:17.014Z,701.6
2019-04-06T07:49:19.454Z,702.1
2019-04-06T07:50:21.592Z,701.8
2019-04-06T07:51:24.098Z,701.8
2019-04-06T07:52:26.539Z,702
2019-04-06T07:53:28.704Z,702.1
2019-04-06T07:54:30.930Z,702
2019-04-06T07:55:33.718Z,701.8
2019-04-06T07:56:35.891Z,701.8
2019-04-06T07:57:38.336Z,702.1
2019-04-06T07:59:45.755Z,702.2
2019-04-06T08:00:48.169Z,702.3
2019-04-06T08:01:51.200Z,702.4
2019-04-06T08:02:53.325Z,702.5
2019-04-06T08:03:55.485Z,702.7
2019-04-06T08:04:58.099Z,702.7
2019-04-06T08:06:00.326Z,702.7
2019-04-06T08:07:02.955Z,702.3
2019-04-06T08:08:05.385Z,702.2
2019-04-06T08:09:08.168Z,702.3
2019-04-06T08:10:10.351Z,702.4
2019-04-06T08:11:13.144Z,702.7
2019-04-06T08:12:15.581Z,702.5
2019-04-06T08:13:18.423Z,702.5
2019-04-06T08:14:20.781Z,702.9
2019-04-06T08:15:23.416Z,702.5
2019-04-06T08:16:25.856Z,702.6
2019-04-06T08:17:28.503Z,702.9
2019-04-06T08:18:31.877Z,702.5
2019-04-06T08:19:34.579Z,702.6
2019-04-06T08:20:36.877Z,702.6
2019-04-06T08:21:39.365Z,702.7
2019-04-06T08:22:41.840Z,702.9
2019-04-06T08:23:44.420Z,703.3
2019-04-06T08:24:47.053Z,703.1
2019-04-06T08:25:49.248Z,702.9
2019-04-06T08:26:51.821Z,703.2
2019-04-06T08:27:54.078Z,703.1
2019-04-06T08:30:01.615Z,703
2019-04-06T08:31:03.784Z,702.9
2019-04-06T08:32:06.486Z,703
2019-04-06T08:33:09.297Z,703.3
2019-04-06T08:36:23.239Z,703.3
2019-04-06T08:37:25.719Z,703.4
2019-04-06T08:38:28.251Z,703.1
2019-04-06T08:39:31.146Z,703.7
2019-04-06T08:40:33.730Z,703.4
2019-04-06T08:41:36.525Z,703.3
2019-04-06T08:42:38.814Z,703.3
2019-04-06T08:43:41.520Z,703.2
2019-04-06T08:44:43.938Z,703.4
2019-04-06T08:45:46.516Z,703.2
2019-04-06T08:46:49.037Z,703.8
2019-04-06T08:47:51.793Z,703.6
2019-04-06T08:48:53.667Z,703.1
2019-04-06T08:49:56.100Z,703.3
2019-04-06T08:50:59.184Z,703.4
2019-04-06T08:52:01.975Z,703.6
2019-04-06T08:53:04.396Z,703.6
2019-04-06T08:54:06.831Z,703.8
2019-04-06T08:55:09.326Z,703.8
2019-04-06T08:56:11.558Z,703.5
2019-04-06T08:57:14.033Z,703.4
2019-04-06T08:58:16.456Z,704.1
2019-04-06T08:59:19.214Z,703.4
2019-04-06T09:00:21.386Z,704
2019-04-06T09:01:24.160Z,703.9
2019-04-06T09:03:32.528Z,703.6
2019-04-06T09:04:35.199Z,703.8
2019-04-06T09:05:37.578Z,703.6
2019-04-06T09:06:39.776Z,703.6
2019-04-06T09:07:42.858Z,703.8
2019-04-06T09:08:45.416Z,704.5
2019-04-06T09:09:48.099Z,704.5
2019-04-06T09:10:50.715Z,704.8
2019-04-06T09:11:52.618Z,704.9
2019-04-06T09:12:54.934Z,705.5
2019-04-06T09:13:57.148Z,705.2
2019-04-06T09:14:59.579Z,705.2
2019-04-06T09:17:07.848Z,705.5
2019-04-06T09:18:10.225Z,705.3
2019-04-06T09:19:12.866Z,705.2
2019-04-06T09:20:15.712Z,705.3
2019-04-06T09:21:18.161Z,705.5
2019-04-06T09:22:20.321Z,705.4
2019-04-06T09:23:22.580Z,705.9
2019-04-06T09:24:25.039Z,705.5
2019-04-06T09:25:27.467Z,705.8
2019-04-06T09:26:30.420Z,705.6
2019-04-06T09:27:33.130Z,705.7
2019-04-06T09:28:35.694Z,706.3
2019-04-06T09:29:38.039Z,706.4
2019-04-06T09:30:40.498Z,706.2
2019-04-06T09:31:42.666Z,706.1
2019-04-06T09:32:45.018Z,706.2
2019-04-06T09:33:47.032Z,706.7
2019-04-06T09:34:49.227Z,706.9
2019-04-06T09:35:51.875Z,706.9
2019-04-06T09:36:54.319Z,707
2019-04-06T09:37:56.925Z,706.9
2019-04-06T09:38:59.087Z,707
2019-04-06T09:40:01.364Z,707.1
2019-04-06T09:41:04.183Z,707.5
2019-04-06T09:42:06.517Z,707.7
2019-04-06T09:43:08.908Z,707.3
2019-04-06T09:44:11.444Z,707.3
2019-04-06T09:45:13.335Z,707.8
2019-04-06T09:46:16.170Z,707.7
2019-04-06T09:47:19.116Z,707.8
2019-04-06T09:48:22.030Z,708
2019-04-06T09:49:24.099Z,707.9
2019-04-06T09:50:26.717Z,708
2019-04-06T09:51:28.635Z,708.6
2019-04-06T09:52:31.071Z,709
2019-04-06T09:53:35.760Z,709
2019-04-06T09:54:38.344Z,709.1
2019-04-06T09:55:40.805Z,708.6
2019-04-06T09:56:43.024Z,708.8
2019-04-06T09:57:45.625Z,708.8
2019-04-06T09:58:48.607Z,709
2019-04-06T09:59:50.966Z,708.7
2019-04-06T10:00:53.570Z,708.9
2019-04-06T10:01:55.976Z,709
2019-04-06T10:02:58.478Z,709.3
2019-04-06T10:04:01.075Z,709.3
2019-04-06T10:05:03.578Z,709.2
2019-04-06T10:06:06.099Z,709.8
2019-04-06T10:07:09.117Z,709.4
2019-04-06T10:08:11.773Z,710.2
2019-04-06T10:09:13.459Z,709.9
2019-04-06T10:10:15.620Z,709.4
2019-04-06T10:11:18.552Z,710.3
2019-04-06T10:12:21.138Z,710.5
2019-04-06T10:13:23.308Z,710.1
2019-04-06T10:14:25.237Z,710.4
2019-04-06T10:15:27.558Z,709.9
2019-04-06T10:16:30.245Z,710.5
2019-04-06T10:17:32.768Z,710.4
2019-04-06T10:18:35.193Z,710.5
2019-04-06T10:19:37.571Z,710.3
2019-04-06T10:20:40.434Z,710.5
2019-04-06T10:21:42.946Z,710.8
2019-04-06T10:22:45.546Z,710.9
2019-04-06T10:23:48.479Z,709.9
2019-04-06T10:24:50.746Z,710.7
2019-04-06T10:25:53.433Z,710.7
2019-04-06T10:26:55.888Z,710.7
2019-04-06T10:27:58.353Z,710.8
2019-04-06T10:29:00.873Z,711.1
2019-04-06T10:30:03.274Z,710.9
2019-04-06T10:31:05.855Z,710.9
2019-04-06T10:32:08.414Z,711.5
2019-04-06T10:33:11.062Z,711.5
2019-04-06T10:34:13.436Z,711.2
2019-04-06T10:35:16.340Z,711.8
2019-04-06T10:36:19.159Z,712.2
2019-04-06T10:37:21.886Z,712.4
2019-04-06T10:38:24.738Z,711.7
2019-04-06T10:39:27.373Z,712.4
2019-04-06T10:40:30.048Z,712.2
2019-04-06T10:41:32.676Z,712.4
2019-04-06T10:42:35.160Z,712.9
2019-04-06T10:43:38.015Z,712.7
2019-04-06T10:44:40.266Z,713
2019-04-06T10:45:42.879Z,713.3
2019-04-06T10:46:45.672Z,713.4
2019-04-06T10:47:48.106Z,714.3
2019-04-06T10:48:50.453Z,714.6
2019-04-06T10:49:53.004Z,714.4
2019-04-06T10:50:55.328Z,715.1
2019-04-06T10:51:57.818Z,714.8
2019-04-06T10:53:00.133Z,715
2019-04-06T10:54:03.032Z,714.9
2019-04-06T10:55:05.823Z,714.7
2019-04-06T10:56:08.600Z,714.6
2019-04-06T10:57:10.458Z,715.2
2019-04-06T10:58:12.877Z,715.1
2019-04-06T10:59:15.510Z,714.7
2019-04-06T11:00:17.993Z,715.2
2019-04-06T11:01:20.624Z,715.3
2019-04-06T11:02:22.716Z,715.6
2019-04-06T11:03:24.594Z,715.6
2019-04-06T11:04:27.398Z,715.6
2019-04-06T11:05:30.221Z,714.9
2019-04-06T11:06:32.695Z,715.2
2019-04-06T11:07:35.562Z,715.8
2019-04-06T11:08:37.448Z,716.1
2019-04-06T11:09:39.770Z,716.1
2019-04-06T11:10:42.712Z,716.6
2019-04-06T11:11:45.631Z,716.4
2019-04-06T11:12:48.069Z,716.9
2019-04-06T11:13:50.439Z,716.5
2019-04-06T11:14:52.950Z,716.7
2019-04-06T11:15:55.370Z,716.9
2019-04-06T11:16:58.216Z,717.5
2019-04-06T11:18:00.642Z,717.3
2019-04-06T11:19:03.591Z,717.5
2019-04-06T11:20:06.206Z,717.5
2019-04-06T11:21:08.397Z,717.4
2019-04-06T11:22:10.561Z,718.5
2019-04-06T11:23:12.729Z,718.1
2019-04-06T11:24:15.159Z,717.7
2019-04-06T11:25:17.392Z,717.8
2019-04-06T11:26:20.347Z,717.9
2019-04-06T11:27:23.260Z,717.7
2019-04-06T11:28:25.825Z,718.5
2019-04-06T11:29:28.248Z,718.4
2019-04-06T11:30:30.978Z,718.5
2019-04-06T11:31:33.653Z,718.2
2019-04-06T11:32:35.950Z,718.1
2019-04-06T11:33:38.095Z,717.8
2019-04-06T11:34:40.858Z,718.1
2019-04-06T11:35:43.320Z,718.8
2019-04-06T11:36:46.412Z,717.6
2019-04-06T11:37:48.555Z,717.9
2019-04-06T11:38:50.958Z,718.6
2019-04-06T11:39:53.916Z,718.2
2019-04-06T11:40:56.359Z,718.3
2019-04-06T11:41:58.519Z,718.4
2019-04-06T11:43:01.370Z,718.6
2019-04-06T11:44:03.808Z,718.7
2019-04-06T11:45:05.937Z,719
2019-04-06T11:46:08.808Z,718.3
2019-04-06T11:47:11.534Z,718.8
2019-04-06T11:48:14.056Z,719.4
2019-04-06T11:49:16.312Z,719.6
2019-04-06T11:50:18.741Z,718.9
2019-04-06T11:51:21.328Z,719.2
2019-04-06T11:52:23.947Z,719.4
2019-04-06T11:53:26.594Z,719.2
2019-04-06T11:54:29.290Z,719.9
2019-04-06T11:55:31.423Z,718.5
2019-04-06T11:56:33.922Z,719.3
2019-04-06T11:57:36.304Z,719.4
2019-04-06T11:58:38.583Z,718.9
2019-04-06T11:59:41.463Z,719.4
2019-04-06T12:00:43.387Z,719.7
2019-04-06T12:01:45.740Z,719.7
2019-04-06T12:02:48.667Z,719.5
2019-04-06T12:03:51.194Z,719.3
2019-04-06T12:04:52.825Z,719.7
2019-04-06T12:05:54.999Z,719.5
2019-04-06T12:06:57.483Z,719.4
2019-04-06T12:07:59.659Z,718.7
2019-04-06T12:09:02.090Z,718.9
2019-04-06T12:10:04.952Z,719.3
2019-04-06T12:11:07.717Z,719.3
2019-04-06T12:12:10.650Z,719.4
2019-04-06T12:13:12.927Z,719.5
2019-04-06T12:14:15.246Z,719.6
2019-04-06T12:15:17.718Z,719.9
2019-04-06T12:16:19.856Z,719.3
2019-04-06T12:17:22.233Z,719.7
2019-04-06T12:18:24.516Z,718.9
2019-04-06T12:19:27.403Z,719.8
2019-04-06T12:20:30.415Z,719.4
2019-04-06T12:21:32.934Z,719.6
2019-04-06T12:22:35.393Z,720.3
2019-04-06T12:23:38.272Z,720
2019-04-06T12:24:41.252Z,719.7
2019-04-06T12:25:43.589Z,720
2019-04-06T12:26:45.721Z,719.7
2019-04-06T12:27:48.157Z,719.8
2019-04-06T12:28:50.799Z,719.6
2019-04-06T12:30:07.885Z,719.9
2019-04-06T12:31:10.043Z,720
2019-04-06T12:32:12.639Z,719.1
2019-04-06T12:33:14.965Z,720.1
2019-04-06T12:34:17.496Z,719.6
2019-04-06T12:35:19.378Z,719.9
2019-04-06T12:36:22.083Z,718.5
2019-04-06T12:37:24.557Z,719.3
2019-04-06T12:38:27.792Z,720
2019-04-06T12:39:30.419Z,720.1
2019-04-06T12:40:33.343Z,719.4
2019-04-06T12:41:36.150Z,720
2019-04-06T12:42:39.374Z,719.2
2019-04-06T12:43:41.840Z,719.6
2019-04-06T12:44:44.695Z,719.4
2019-04-06T12:45:47.694Z,720.1
2019-04-06T12:46:50.778Z,720
2019-04-06T12:47:53.640Z,720.3
2019-04-06T12:48:56.177Z,720
2019-04-06T12:49:58.759Z,719.6
2019-04-06T12:51:01.571Z,720.3
2019-04-06T12:52:04.562Z,720.4
2019-04-06T12:53:07.558Z,720.4
2019-04-06T12:54:10.261Z,720.5
2019-04-06T12:55:12.689Z,720.4
2019-04-06T12:56:15.085Z,720.6
2019-04-06T12:57:17.778Z,720.8
2019-04-06T12:58:19.627Z,720
2019-04-06T12:59:22.530Z,719.8
2019-04-06T13:00:25.133Z,720.8
2019-04-06T13:01:28.094Z,720.8
2019-04-06T13:02:30.530Z,720.2
2019-04-06T13:03:33.319Z,720.7
2019-04-06T13:04:35.949Z,721
2019-04-06T13:05:38.852Z,721.1
2019-04-06T13:06:41.519Z,721
2019-04-06T13:07:44.658Z,720.7
2019-04-06T13:08:47.714Z,720.9
2019-04-06T13:09:50.371Z,720.9
2019-04-06T13:10:52.943Z,721
2019-04-06T13:11:55.405Z,721.3
2019-04-06T13:12:58.466Z,720.9
2019-04-06T13:14:00.898Z,721.1
2019-04-06T13:15:03.345Z,721.2
2019-04-06T13:16:05.413Z,721.2
2019-04-06T13:17:07.312Z,721.6
2019-04-06T13:18:09.995Z,721.8
2019-04-06T13:19:12.425Z,721.7
2019-04-06T13:20:15.133Z,721.3
2019-04-06T13:21:17.493Z,722.1
2019-04-06T13:22:20.829Z,722.1
2019-04-06T13:23:23.472Z,721.9
2019-04-06T13:24:26.267Z,722.5
2019-04-06T13:25:29.069Z,722.3
2019-04-06T13:26:31.650Z,722.5
2019-04-06T13:27:34.244Z,722.6
2019-04-06T13:28:36.897Z,722.3
2019-04-06T13:29:39.332Z,722.9
2019-04-06T13:30:42.161Z,722.9
2019-04-06T13:31:44.854Z,723.5
2019-04-06T13:32:46.757Z,723.2
2019-04-06T13:33:48.971Z,723.6
2019-04-06T13:34:51.149Z,723.9
2019-04-06T13:35:53.740Z,723.7
2019-04-06T13:36:56.706Z,723.5
2019-04-06T13:37:58.957Z,723.7
2019-04-06T13:39:01.573Z,724.4
2019-04-06T13:40:04.301Z,722.7
2019-04-06T13:41:06.919Z,723.4
2019-04-06T13:42:09.355Z,724
2019-04-06T13:43:11.837Z,724.6
2019-04-06T13:44:14.655Z,723.6
2019-04-06T13:45:17.511Z,723.9
2019-04-06T13:46:19.711Z,723.7
2019-04-06T13:47:22.391Z,723.9
2019-04-06T13:48:25.533Z,723.7
2019-04-06T13:49:27.769Z,723.9
2019-04-06T13:50:30.109Z,724.4
2019-04-06T13:51:32.801Z,724.2
2019-04-06T13:52:35.773Z,724.6
2019-04-06T13:53:38.331Z,724.3